Detall de PIREP

Printer-friendly versionPDF version

[2014/01/05 09:43:00]
Flight IATA:CT1004
Pilot Number:012
Company ICAO:CAT
Aircraft Type:B738/F
PAX:160
Departing Airport: LEBL
Destination Airport: LPPR
Alternate Airport:LPPT
Online: VATSIM
Route:LOBAR UN725 TUSBA UT7 ASPOR
Flight Level:F330
No Slew and time accel
No pause
Crash detect
Detect pilot in Cockpit between each 30 and 45 minutes
09:43 Zero fuel Weight: 125758 Lbs, Fuel Weight: 23595 Lbs
09:43 VATSIM:LEBL 050930Z 30015KT 260V330 9999 FEW020 11/M02 Q1017 NOSIG
09:43 VATSIM:LPPR 050900Z 19014KT 6000 -RA BKN007 OVC011 14/13 Q1019
09:43 VOICE CATALONIAN / XMAS CHARTER
09:55 Parking Brakes off
09:59 Take-off
09:59 Take off Weight: 148532 Lbs
09:59 Wind: 287º @ 015 Knots Heading: 248º
09:59 POS N41º 17´ 08´´ E002º 05´ 01´´
09:59 Gear Up: 162 Knots
09:59 Flaps:3 at 162 Knots
10:00 Flaps:2 at 181 Knots
10:00 Flaps:1 at 184 Knots
10:01 Flaps:0 at 202 Knots
10:14 Wind:331º@080 Knots Heading: 282º Ground Speed: 413 Knots Altitude 29281 ft
10:16 TOC
10:16 Fuel Weight: 19192 Lb
10:29 Wind:328º@074 Knots Heading: 292º Ground Speed: 402 Knots Altitude 33136 ft
10:44 Wind:310º@061 Knots Heading: 282º Ground Speed: 405 Knots Altitude 33166 ft
10:59 Wind:299º@028 Knots Heading: 278º Ground Speed: 431 Knots Altitude 33136 ft
11:09 TOD
11:09 Fuel Weight: 13871 Lb
11:14 Wind:297º@051 Knots Heading: 227º Ground Speed: 395 Knots Altitude 21601 ft
11:23 Flaps:1 at 238 Knots
11:26 Flaps:2 at 230 Knots
11:26 Gear Down: 234 Knots
11:27 Flaps:3 at 191 Knots
11:27 Flaps:4 at 187 Knots
11:27 Flaps:5 at 177 Knots
11:28 Flaps:6 at 181 Knots
11:28 Flaps:7 at 157 Knots
11:29 Wind:193º@016 Knots Heading: 166º Ground Speed: 147 Knots Altitude 1725 ft
11:31 TouchDown:Rate -83 ft/min Speed: 139 Knots
11:31 VATSIM:LPPR 051100Z 19016KT 6000 SCT010 OVC015 14/13 Q1020
11:31 Land
11:31 Wind:193º@016 Knots
11:31 Heading: 168º
11:31 Flight Duration: 01:32
11:31 Landing Weight: 138419 Lbs
11:31 POS N41º 14´ 56´´ W008º 40´ 54´´
11:35 Parking brakes on
11:35 Block to Block Duration: 01:40
11:35 Final Fuel: 12374 Lbls
11:35 Spent Fuel: 11221 Lbls
11:35 Flight Length: 552 NM
11:35 TOD Land Length: 103 NM

Exportar CSV

Powered by Drupal - Modified by Danger4k